sensor_id;sensor_type;location;lat;lon;timestamp;temperature;humidity
18339;DHT22;9295;44.484;11.240;2022-09-27T00:01:02;15.20;99.90
18339;DHT22;9295;44.484;11.240;2022-09-27T00:03:32;15.20;99.90
18339;DHT22;9295;44.484;11.240;2022-09-27T00:06:04;15.20;99.90
18339;DHT22;9295;44.484;11.240;2022-09-27T00:08:34;15.30;99.90
18339;DHT22;9295;44.484;11.240;2022-09-27T00:11:04;15.30;99.90
18339;DHT22;9295;44.484;11.240;2022-09-27T00:13:33;15.30;99.90
18339;DHT22;9295;44.484;11.240;2022-09-27T00:16:03;15.20;99.90
18339;DHT22;9295;44.484;11.240;2022-09-27T00:18:33;15.20;99.90
18339;DHT22;9295;44.484;11.240;2022-09-27T00:21:06;15.20;99.90
18339;DHT22;9295;44.484;11.240;2022-09-27T00:23:36;15.20;99.90
18339;DHT22;9295;44.484;11.240;2022-09-27T00:26:06;15.10;99.90
18339;DHT22;9295;44.484;11.240;2022-09-27T00:28:35;15.10;99.90
18339;DHT22;9295;44.484;11.240;2022-09-27T00:31:03;15.10;99.90
18339;DHT22;9295;44.484;11.240;2022-09-27T00:33:34;15.10;99.90
18339;DHT22;9295;44.484;11.240;2022-09-27T00:36:03;15.10;99.90
18339;DHT22;9295;44.484;11.240;2022-09-27T00:38:33;15.20;99.90
18339;DHT22;9295;44.484;11.240;2022-09-27T00:41:01;15.20;99.90
18339;DHT22;9295;44.484;11.240;2022-09-27T00:43:44;15.30;99.90
18339;DHT22;9295;44.484;11.240;2022-09-27T00:46:16;15.30;99.90
18339;DHT22;9295;44.484;11.240;2022-09-27T00:48:49;15.30;99.90
18339;DHT22;9295;44.484;11.240;2022-09-27T00:51:23;15.30;99.90
18339;DHT22;9295;44.484;11.240;2022-09-27T00:53:54;15.30;99.90
18339;DHT22;9295;44.484;11.240;2022-09-27T00:56:28;15.30;99.90
18339;DHT22;9295;44.484;11.240;2022-09-27T00:59:01;15.30;99.90
18339;DHT22;9295;44.484;11.240;2022-09-27T01:01:30;15.30;99.90
18339;DHT22;9295;44.484;11.240;2022-09-27T01:04:04;15.30;99.90
18339;DHT22;9295;44.484;11.240;2022-09-27T01:06:35;15.40;99.90
18339;DHT22;9295;44.484;11.240;2022-09-27T01:09:04;15.50;99.90
18339;DHT22;9295;44.484;11.240;2022-09-27T01:11:41;15.60;99.90
18339;DHT22;9295;44.484;11.240;2022-09-27T01:14:34;15.50;99.90
18339;DHT22;9295;44.484;11.240;2022-09-27T01:17:13;15.50;99.90
18339;DHT22;9295;44.484;11.240;2022-09-27T01:23:26;15.40;99.90
18339;DHT22;9295;44.484;11.240;2022-09-27T01:26:07;15.30;99.90
18339;DHT22;9295;44.484;11.240;2022-09-27T01:28:50;15.30;99.90
18339;DHT22;9295;44.484;11.240;2022-09-27T01:31:29;15.30;99.90
18339;DHT22;9295;44.484;11.240;2022-09-27T01:34:03;15.20;99.90
18339;DHT22;9295;44.484;11.240;2022-09-27T01:36:42;15.20;99.90
18339;DHT22;9295;44.484;11.240;2022-09-27T01:39:25;15.20;99.90
18339;DHT22;9295;44.484;11.240;2022-09-27T01:42:24;15.10;99.90
18339;DHT22;9295;44.484;11.240;2022-09-27T01:44:59;15.10;99.90
18339;DHT22;9295;44.484;11.240;2022-09-27T01:47:43;15.10;99.90
18339;DHT22;9295;44.484;11.240;2022-09-27T01:50:39;15.10;99.90
18339;DHT22;9295;44.484;11.240;2022-09-27T01:53:14;15.10;99.90
18339;DHT22;9295;44.484;11.240;2022-09-27T01:56:17;15.10;99.90
18339;DHT22;9295;44.484;11.240;2022-09-27T01:58:57;15.00;99.90
18339;DHT22;9295;44.484;11.240;2022-09-27T02:01:30;15.00;99.90
18339;DHT22;9295;44.484;11.240;2022-09-27T02:04:02;15.00;99.90
18339;DHT22;9295;44.484;11.240;2022-09-27T02:07:09;15.00;99.90
18339;DHT22;9295;44.484;11.240;2022-09-27T02:09:40;15.00;99.90
18339;DHT22;9295;44.484;11.240;2022-09-27T02:12:27;15.00;99.90
18339;DHT22;9295;44.484;11.240;2022-09-27T02:15:01;15.00;99.90
18339;DHT22;9295;44.484;11.240;2022-09-27T02:17:39;15.00;99.90
18339;DHT22;9295;44.484;11.240;2022-09-27T02:20:15;15.00;99.90
18339;DHT22;9295;44.484;11.240;2022-09-27T02:22:56;15.00;99.90
18339;DHT22;9295;44.484;11.240;2022-09-27T02:25:32;15.00;99.90
18339;DHT22;9295;44.484;11.240;2022-09-27T02:28:10;15.00;99.90
18339;DHT22;9295;44.484;11.240;2022-09-27T02:30:41;14.90;99.90
18339;DHT22;9295;44.484;11.240;2022-09-27T02:33:27;14.90;99.90
18339;DHT22;9295;44.484;11.240;2022-09-27T02:35:58;14.80;99.90
18339;DHT22;9295;44.484;11.240;2022-09-27T02:38:27;14.70;99.90
18339;DHT22;9295;44.484;11.240;2022-09-27T02:40:58;14.70;99.90
18339;DHT22;9295;44.484;11.240;2022-09-27T02:43:29;14.70;99.90
18339;DHT22;9295;44.484;11.240;2022-09-27T02:46:13;14.70;99.90
18339;DHT22;9295;44.484;11.240;2022-09-27T02:48:52;14.70;99.90
18339;DHT22;9295;44.484;11.240;2022-09-27T02:51:42;14.60;99.90
18339;DHT22;9295;44.484;11.240;2022-09-27T02:54:20;14.60;99.90
18339;DHT22;9295;44.484;11.240;2022-09-27T02:57:13;14.50;99.90
18339;DHT22;9295;44.484;11.240;2022-09-27T03:00:02;14.50;99.90
18339;DHT22;9295;44.484;11.240;2022-09-27T03:02:50;14.40;99.90
18339;DHT22;9295;44.484;11.240;2022-09-27T03:05:56;14.40;99.90
18339;DHT22;9295;44.484;11.240;2022-09-27T03:08:29;14.30;99.90
18339;DHT22;9295;44.484;11.240;2022-09-27T03:10:58;14.20;99.90
18339;DHT22;9295;44.484;11.240;2022-09-27T03:13:27;14.20;99.90
18339;DHT22;9295;44.484;11.240;2022-09-27T03:15:57;14.10;99.90
18339;DHT22;9295;44.484;11.240;2022-09-27T03:18:34;14.10;99.90
18339;DHT22;9295;44.484;11.240;2022-09-27T03:21:21;14.10;99.90
18339;DHT22;9295;44.484;11.240;2022-09-27T03:23:51;14.00;99.90
18339;DHT22;9295;44.484;11.240;2022-09-27T03:26:20;14.00;99.90
18339;DHT22;9295;44.484;11.240;2022-09-27T03:28:48;13.90;99.90
18339;DHT22;9295;44.484;11.240;2022-09-27T03:31:17;13.90;99.90
18339;DHT22;9295;44.484;11.240;2022-09-27T03:34:06;13.80;99.90
18339;DHT22;9295;44.484;11.240;2022-09-27T03:36:34;13.80;99.90
18339;DHT22;9295;44.484;11.240;2022-09-27T03:39:04;13.80;99.90
18339;DHT22;9295;44.484;11.240;2022-09-27T03:41:33;13.80;99.90
18339;DHT22;9295;44.484;11.240;2022-09-27T03:44:01;13.70;99.90
18339;DHT22;9295;44.484;11.240;2022-09-27T03:46:30;13.70;99.90
18339;DHT22;9295;44.484;11.240;2022-09-27T03:48:59;13.70;99.90
18339;DHT22;9295;44.484;11.240;2022-09-27T03:51:28;13.70;99.90
18339;DHT22;9295;44.484;11.240;2022-09-27T03:53:56;13.70;99.90
18339;DHT22;9295;44.484;11.240;2022-09-27T03:56:26;13.70;99.90
18339;DHT22;9295;44.484;11.240;2022-09-27T03:58:55;13.70;99.90
18339;DHT22;9295;44.484;11.240;2022-09-27T04:01:25;13.60;99.90
18339;DHT22;9295;44.484;11.240;2022-09-27T04:04:04;13.70;99.90
18339;DHT22;9295;44.484;11.240;2022-09-27T04:06:37;13.70;99.90
18339;DHT22;9295;44.484;11.240;2022-09-27T04:09:06;13.60;99.90
18339;DHT22;9295;44.484;11.240;2022-09-27T04:11:56;13.60;99.90
18339;DHT22;9295;44.484;11.240;2022-09-27T04:14:24;13.70;99.90
18339;DHT22;9295;44.484;11.240;2022-09-27T04:17:13;13.70;99.90
18339;DHT22;9295;44.484;11.240;2022-09-27T04:20:10;13.70;99.90
18339;DHT22;9295;44.484;11.240;2022-09-27T04:22:41;13.70;99.90
18339;DHT22;9295;44.484;11.240;2022-09-27T04:25:11;13.60;99.90
18339;DHT22;9295;44.484;11.240;2022-09-27T04:27:45;13.60;99.90
18339;DHT22;9295;44.484;11.240;2022-09-27T04:30:14;13.60;99.90
18339;DHT22;9295;44.484;11.240;2022-09-27T04:33:01;13.50;99.90
18339;DHT22;9295;44.484;11.240;2022-09-27T04:35:50;13.40;99.90
18339;DHT22;9295;44.484;11.240;2022-09-27T04:38:41;13.40;99.90
18339;DHT22;9295;44.484;11.240;2022-09-27T04:41:10;13.40;99.90
18339;DHT22;9295;44.484;11.240;2022-09-27T04:43:41;13.40;99.90
18339;DHT22;9295;44.484;11.240;2022-09-27T04:46:10;13.40;99.90
18339;DHT22;9295;44.484;11.240;2022-09-27T04:48:38;13.40;99.90
18339;DHT22;9295;44.484;11.240;2022-09-27T04:51:09;13.40;99.90
18339;DHT22;9295;44.484;11.240;2022-09-27T04:53:38;13.40;99.90
18339;DHT22;9295;44.484;11.240;2022-09-27T04:56:07;13.40;99.90
18339;DHT22;9295;44.484;11.240;2022-09-27T04:58:35;13.40;99.90
18339;DHT22;9295;44.484;11.240;2022-09-27T05:01:05;13.30;99.90
18339;DHT22;9295;44.484;11.240;2022-09-27T05:03:55;13.30;99.90
18339;DHT22;9295;44.484;11.240;2022-09-27T05:06:25;13.40;99.90
18339;DHT22;9295;44.484;11.240;2022-09-27T05:08:57;13.60;99.90
18339;DHT22;9295;44.484;11.240;2022-09-27T05:11:29;14.00;99.90
18339;DHT22;9295;44.484;11.240;2022-09-27T05:14:17;14.40;99.90
18339;DHT22;9295;44.484;11.240;2022-09-27T05:17:05;14.70;99.90
18339;DHT22;9295;44.484;11.240;2022-09-27T05:19:53;15.00;99.90
18339;DHT22;9295;44.484;11.240;2022-09-27T05:22:47;15.30;99.90
18339;DHT22;9295;44.484;11.240;2022-09-27T05:25:16;15.60;99.90
18339;DHT22;9295;44.484;11.240;2022-09-27T05:27:45;15.90;99.90
18339;DHT22;9295;44.484;11.240;2022-09-27T05:30:14;16.00;99.90
18339;DHT22;9295;44.484;11.240;2022-09-27T05:33:04;16.20;99.90
18339;DHT22;9295;44.484;11.240;2022-09-27T05:35:51;16.40;99.90
18339;DHT22;9295;44.484;11.240;2022-09-27T05:38:23;16.50;99.90
18339;DHT22;9295;44.484;11.240;2022-09-27T05:40:56;16.50;99.90
18339;DHT22;9295;44.484;11.240;2022-09-27T05:43:25;16.50;99.90
18339;DHT22;9295;44.484;11.240;2022-09-27T05:45:58;16.60;99.90
18339;DHT22;9295;44.484;11.240;2022-09-27T05:48:29;16.60;99.90
18339;DHT22;9295;44.484;11.240;2022-09-27T05:51:05;16.50;99.90
18339;DHT22;9295;44.484;11.240;2022-09-27T05:53:37;16.40;99.90
18339;DHT22;9295;44.484;11.240;2022-09-27T05:56:13;16.20;99.90
18339;DHT22;9295;44.484;11.240;2022-09-27T05:59:04;16.10;99.90
18339;DHT22;9295;44.484;11.240;2022-09-27T06:01:53;16.00;99.90
18339;DHT22;9295;44.484;11.240;2022-09-27T06:04:52;16.00;99.90
18339;DHT22;9295;44.484;11.240;2022-09-27T06:07:39;16.00;99.90
18339;DHT22;9295;44.484;11.240;2022-09-27T06:10:16;16.00;99.90
18339;DHT22;9295;44.484;11.240;2022-09-27T06:12:45;16.00;99.90
18339;DHT22;9295;44.484;11.240;2022-09-27T06:15:32;16.20;99.90
18339;DHT22;9295;44.484;11.240;2022-09-27T06:18:03;16.60;99.90
18339;DHT22;9295;44.484;11.240;2022-09-27T06:20:36;17.60;99.90
18339;DHT22;9295;44.484;11.240;2022-09-27T06:23:06;18.40;99.90
18339;DHT22;9295;44.484;11.240;2022-09-27T06:25:36;19.30;99.90
18339;DHT22;9295;44.484;11.240;2022-09-27T06:28:28;19.90;99.90
18339;DHT22;9295;44.484;11.240;2022-09-27T06:30:57;20.60;99.90
18339;DHT22;9295;44.484;11.240;2022-09-27T06:33:37;21.20;99.90
18339;DHT22;9295;44.484;11.240;2022-09-27T06:36:08;21.70;99.90
18339;DHT22;9295;44.484;11.240;2022-09-27T06:38:38;22.10;99.90
18339;DHT22;9295;44.484;11.240;2022-09-27T06:41:39;22.50;99.90
18339;DHT22;9295;44.484;11.240;2022-09-27T06:44:26;23.00;99.90
18339;DHT22;9295;44.484;11.240;2022-09-27T06:47:16;23.20;99.90
18339;DHT22;9295;44.484;11.240;2022-09-27T06:50:09;23.50;99.90
18339;DHT22;9295;44.484;11.240;2022-09-27T06:52:47;23.90;99.90
18339;DHT22;9295;44.484;11.240;2022-09-27T06:55:17;24.40;99.90
18339;DHT22;9295;44.484;11.240;2022-09-27T06:57:46;24.70;99.90
18339;DHT22;9295;44.484;11.240;2022-09-27T07:00:32;25.10;99.90
18339;DHT22;9295;44.484;11.240;2022-09-27T07:03:20;25.20;99.90
18339;DHT22;9295;44.484;11.240;2022-09-27T07:06:18;25.40;99.90
18339;DHT22;9295;44.484;11.240;2022-09-27T07:08:59;25.80;99.90
18339;DHT22;9295;44.484;11.240;2022-09-27T07:11:28;26.10;99.90
18339;DHT22;9295;44.484;11.240;2022-09-27T07:13:57;26.40;99.90
18339;DHT22;9295;44.484;11.240;2022-09-27T07:16:25;26.90;99.90
18339;DHT22;9295;44.484;11.240;2022-09-27T07:18:54;27.20;99.90
18339;DHT22;9295;44.484;11.240;2022-09-27T07:21:23;27.30;99.90
18339;DHT22;9295;44.484;11.240;2022-09-27T07:23:52;27.30;99.90
18339;DHT22;9295;44.484;11.240;2022-09-27T07:26:23;27.40;99.90
18339;DHT22;9295;44.484;11.240;2022-09-27T07:28:51;27.80;99.90
18339;DHT22;9295;44.484;11.240;2022-09-27T07:31:21;28.30;99.80
18339;DHT22;9295;44.484;11.240;2022-09-27T07:33:50;28.50;98.30
18339;DHT22;9295;44.484;11.240;2022-09-27T07:36:19;28.70;97.00
18339;DHT22;9295;44.484;11.240;2022-09-27T07:38:48;28.80;96.30
18339;DHT22;9295;44.484;11.240;2022-09-27T07:41:18;29.20;95.90
18339;DHT22;9295;44.484;11.240;2022-09-27T07:43:48;29.60;95.00
18339;DHT22;9295;44.484;11.240;2022-09-27T07:46:19;29.80;94.30
18339;DHT22;9295;44.484;11.240;2022-09-27T07:48:53;30.00;94.30
18339;DHT22;9295;44.484;11.240;2022-09-27T07:51:40;29.30;92.40
18339;DHT22;9295;44.484;11.240;2022-09-27T07:54:38;29.50;94.20
18339;DHT22;9295;44.484;11.240;2022-09-27T07:57:26;29.70;94.10
18339;DHT22;9295;44.484;11.240;2022-09-27T07:59:59;30.10;94.00
18339;DHT22;9295;44.484;11.240;2022-09-27T08:02:28;30.10;92.90
18339;DHT22;9295;44.484;11.240;2022-09-27T08:04:59;30.50;92.50
18339;DHT22;9295;44.484;11.240;2022-09-27T08:07:28;30.00;90.20
18339;DHT22;9295;44.484;11.240;2022-09-27T08:09:59;29.10;92.40
18339;DHT22;9295;44.484;11.240;2022-09-27T08:12:29;28.80;92.40
18339;DHT22;9295;44.484;11.240;2022-09-27T08:14:59;28.70;94.50
18339;DHT22;9295;44.484;11.240;2022-09-27T08:17:29;29.30;94.10
18339;DHT22;9295;44.484;11.240;2022-09-27T08:20:07;29.40;91.60
18339;DHT22;9295;44.484;11.240;2022-09-27T08:23:02;29.60;92.10
18339;DHT22;9295;44.484;11.240;2022-09-27T08:25:36;30.40;91.70
18339;DHT22;9295;44.484;11.240;2022-09-27T08:28:26;30.00;87.20
18339;DHT22;9295;44.484;11.240;2022-09-27T08:31:05;29.50;90.60
18339;DHT22;9295;44.484;11.240;2022-09-27T08:33:33;29.00;89.10
18339;DHT22;9295;44.484;11.240;2022-09-27T08:36:10;28.50;87.10
18339;DHT22;9295;44.484;11.240;2022-09-27T08:38:40;27.70;88.60
18339;DHT22;9295;44.484;11.240;2022-09-27T08:41:15;27.30;90.80
18339;DHT22;9295;44.484;11.240;2022-09-27T08:43:55;27.10;91.70
18339;DHT22;9295;44.484;11.240;2022-09-27T08:46:32;26.90;91.80
18339;DHT22;9295;44.484;11.240;2022-09-27T08:49:09;26.60;92.30
18339;DHT22;9295;44.484;11.240;2022-09-27T08:51:41;26.40;93.20
18339;DHT22;9295;44.484;11.240;2022-09-27T08:54:13;26.30;93.50
18339;DHT22;9295;44.484;11.240;2022-09-27T08:56:46;26.10;93.50
18339;DHT22;9295;44.484;11.240;2022-09-27T08:59:16;25.80;94.00
18339;DHT22;9295;44.484;11.240;2022-09-27T09:01:49;25.40;94.40
18339;DHT22;9295;44.484;11.240;2022-09-27T09:04:45;25.00;95.00
18339;DHT22;9295;44.484;11.240;2022-09-27T09:07:24;24.90;95.60
18339;DHT22;9295;44.484;11.240;2022-09-27T09:10:02;24.80;95.90
18339;DHT22;9295;44.484;11.240;2022-09-27T09:12:49;24.80;95.80
18339;DHT22;9295;44.484;11.240;2022-09-27T09:15:44;24.90;96.50
18339;DHT22;9295;44.484;11.240;2022-09-27T09:18:51;24.80;97.20
18339;DHT22;9295;44.484;11.240;2022-09-27T09:21:43;24.90;98.00
18339;DHT22;9295;44.484;11.240;2022-09-27T09:24:31;24.80;97.50
18339;DHT22;9295;44.484;11.240;2022-09-27T09:27:07;24.80;97.50
18339;DHT22;9295;44.484;11.240;2022-09-27T09:30:01;24.70;97.80
18339;DHT22;9295;44.484;11.240;2022-09-27T09:32:44;24.70;98.00
18339;DHT22;9295;44.484;11.240;2022-09-27T09:35:18;24.70;98.30
18339;DHT22;9295;44.484;11.240;2022-09-27T09:37:51;24.60;97.90
18339;DHT22;9295;44.484;11.240;2022-09-27T09:40:24;24.70;98.20
18339;DHT22;9295;44.484;11.240;2022-09-27T09:42:57;24.70;98.40
18339;DHT22;9295;44.484;11.240;2022-09-27T09:45:30;24.80;98.70
18339;DHT22;9295;44.484;11.240;2022-09-27T09:48:05;24.80;98.40
18339;DHT22;9295;44.484;11.240;2022-09-27T09:50:40;24.80;98.70
18339;DHT22;9295;44.484;11.240;2022-09-27T09:53:15;24.70;98.70
18339;DHT22;9295;44.484;11.240;2022-09-27T09:55:49;24.50;98.50
18339;DHT22;9295;44.484;11.240;2022-09-27T09:58:22;24.50;99.40
18339;DHT22;9295;44.484;11.240;2022-09-27T10:00:59;24.60;99.90
18339;DHT22;9295;44.484;11.240;2022-09-27T10:03:32;24.50;99.90
18339;DHT22;9295;44.484;11.240;2022-09-27T10:06:02;24.30;99.80
18339;DHT22;9295;44.484;11.240;2022-09-27T10:08:31;24.10;99.60
18339;DHT22;9295;44.484;11.240;2022-09-27T10:11:26;23.80;99.90
18339;DHT22;9295;44.484;11.240;2022-09-27T10:14:10;23.60;99.90
18339;DHT22;9295;44.484;11.240;2022-09-27T10:16:42;23.50;99.90
18339;DHT22;9295;44.484;11.240;2022-09-27T10:19:16;23.40;99.90
18339;DHT22;9295;44.484;11.240;2022-09-27T10:21:48;23.30;99.90
18339;DHT22;9295;44.484;11.240;2022-09-27T10:24:18;23.20;99.90
18339;DHT22;9295;44.484;11.240;2022-09-27T10:27:08;23.10;99.90
18339;DHT22;9295;44.484;11.240;2022-09-27T10:29:39;23.10;99.90
18339;DHT22;9295;44.484;11.240;2022-09-27T10:32:21;23.00;99.90
18339;DHT22;9295;44.484;11.240;2022-09-27T10:35:31;23.00;99.90
18339;DHT22;9295;44.484;11.240;2022-09-27T10:38:20;23.10;99.90
18339;DHT22;9295;44.484;11.240;2022-09-27T10:40:53;23.20;99.90
18339;DHT22;9295;44.484;11.240;2022-09-27T10:43:31;23.30;99.90
18339;DHT22;9295;44.484;11.240;2022-09-27T10:46:24;23.40;99.90
18339;DHT22;9295;44.484;11.240;2022-09-27T10:49:10;23.40;99.90
18339;DHT22;9295;44.484;11.240;2022-09-27T10:51:50;23.30;99.90
18339;DHT22;9295;44.484;11.240;2022-09-27T10:54:23;23.30;99.90
18339;DHT22;9295;44.484;11.240;2022-09-27T10:56:56;23.20;99.90
18339;DHT22;9295;44.484;11.240;2022-09-27T10:59:26;23.20;99.90
18339;DHT22;9295;44.484;11.240;2022-09-27T11:01:58;23.20;99.90
18339;DHT22;9295;44.484;11.240;2022-09-27T11:04:36;23.10;99.90
18339;DHT22;9295;44.484;11.240;2022-09-27T11:07:12;23.00;99.90
18339;DHT22;9295;44.484;11.240;2022-09-27T11:09:48;22.90;99.90
18339;DHT22;9295;44.484;11.240;2022-09-27T11:12:19;23.00;99.90
18339;DHT22;9295;44.484;11.240;2022-09-27T11:14:56;23.20;99.90
18339;DHT22;9295;44.484;11.240;2022-09-27T11:17:29;23.30;99.90
18339;DHT22;9295;44.484;11.240;2022-09-27T11:20:15;23.30;99.90
18339;DHT22;9295;44.484;11.240;2022-09-27T11:23:22;23.40;99.90
18339;DHT22;9295;44.484;11.240;2022-09-27T11:26:07;23.50;99.90
18339;DHT22;9295;44.484;11.240;2022-09-27T11:28:48;23.40;99.90
18339;DHT22;9295;44.484;11.240;2022-09-27T11:31:57;23.40;99.90
18339;DHT22;9295;44.484;11.240;2022-09-27T11:37:31;23.30;99.90
18339;DHT22;9295;44.484;11.240;2022-09-27T11:40:14;23.20;99.90
18339;DHT22;9295;44.484;11.240;2022-09-27T11:43:06;23.10;99.90
18339;DHT22;9295;44.484;11.240;2022-09-27T11:45:44;23.10;99.90
18339;DHT22;9295;44.484;11.240;2022-09-27T11:48:52;23.00;99.90
18339;DHT22;9295;44.484;11.240;2022-09-27T11:51:32;23.00;99.90
18339;DHT22;9295;44.484;11.240;2022-09-27T11:54:20;23.00;99.90
18339;DHT22;9295;44.484;11.240;2022-09-27T11:56:55;23.00;99.90
18339;DHT22;9295;44.484;11.240;2022-09-27T12:00:00;23.10;99.90
18339;DHT22;9295;44.484;11.240;2022-09-27T12:06:01;23.20;99.90
18339;DHT22;9295;44.484;11.240;2022-09-27T12:09:00;23.30;99.90
18339;DHT22;9295;44.484;11.240;2022-09-27T12:11:35;23.30;99.90
18339;DHT22;9295;44.484;11.240;2022-09-27T12:14:10;23.30;99.90
18339;DHT22;9295;44.484;11.240;2022-09-27T12:16:47;23.30;99.90
18339;DHT22;9295;44.484;11.240;2022-09-27T12:19:21;23.30;99.90
18339;DHT22;9295;44.484;11.240;2022-09-27T12:22:01;23.20;99.90
18339;DHT22;9295;44.484;11.240;2022-09-27T12:24:35;23.10;99.90
18339;DHT22;9295;44.484;11.240;2022-09-27T12:27:34;23.10;99.90
18339;DHT22;9295;44.484;11.240;2022-09-27T12:30:04;23.00;99.90
18339;DHT22;9295;44.484;11.240;2022-09-27T12:32:39;23.00;99.90
18339;DHT22;9295;44.484;11.240;2022-09-27T12:35:17;23.00;99.90
18339;DHT22;9295;44.484;11.240;2022-09-27T12:37:51;23.10;99.90
18339;DHT22;9295;44.484;11.240;2022-09-27T12:40:25;23.10;99.90
18339;DHT22;9295;44.484;11.240;2022-09-27T12:43:01;23.20;99.90
18339;DHT22;9295;44.484;11.240;2022-09-27T12:45:50;23.20;99.90
18339;DHT22;9295;44.484;11.240;2022-09-27T12:48:27;23.30;99.90
18339;DHT22;9295;44.484;11.240;2022-09-27T12:51:05;23.40;99.90
18339;DHT22;9295;44.484;11.240;2022-09-27T12:53:45;23.50;99.90
18339;DHT22;9295;44.484;11.240;2022-09-27T12:56:36;23.60;99.90
18339;DHT22;9295;44.484;11.240;2022-09-27T12:59:34;23.70;99.90
18339;DHT22;9295;44.484;11.240;2022-09-27T13:08:33;23.60;99.90
18339;DHT22;9295;44.484;11.240;2022-09-27T13:11:12;23.70;99.90
18339;DHT22;9295;44.484;11.240;2022-09-27T13:13:42;23.70;99.70
18339;DHT22;9295;44.484;11.240;2022-09-27T13:16:11;23.70;99.80
18339;DHT22;9295;44.484;11.240;2022-09-27T13:18:54;23.80;97.90
18339;DHT22;9295;44.484;11.240;2022-09-27T13:21:55;23.80;97.20
18339;DHT22;9295;44.484;11.240;2022-09-27T13:24:48;23.90;96.40
18339;DHT22;9295;44.484;11.240;2022-09-27T13:27:38;24.00;96.40
18339;DHT22;9295;44.484;11.240;2022-09-27T13:30:44;24.00;97.00
18339;DHT22;9295;44.484;11.240;2022-09-27T13:33:32;24.10;96.40
18339;DHT22;9295;44.484;11.240;2022-09-27T13:36:23;24.10;96.50
18339;DHT22;9295;44.484;11.240;2022-09-27T13:39:17;24.10;96.90
18339;DHT22;9295;44.484;11.240;2022-09-27T13:42:19;24.20;96.50
18339;DHT22;9295;44.484;11.240;2022-09-27T13:45:00;24.20;96.60
18339;DHT22;9295;44.484;11.240;2022-09-27T13:47:35;24.10;96.90
18339;DHT22;9295;44.484;11.240;2022-09-27T13:50:19;24.20;96.10
18339;DHT22;9295;44.484;11.240;2022-09-27T13:53:01;24.10;96.00
18339;DHT22;9295;44.484;11.240;2022-09-27T13:55:45;24.10;95.90
18339;DHT22;9295;44.484;11.240;2022-09-27T13:58:43;24.10;95.30
18339;DHT22;9295;44.484;11.240;2022-09-27T14:01:35;24.00;95.20
18339;DHT22;9295;44.484;11.240;2022-09-27T14:04:15;24.10;95.70
18339;DHT22;9295;44.484;11.240;2022-09-27T14:06:48;24.10;95.40
18339;DHT22;9295;44.484;11.240;2022-09-27T14:09:20;24.20;95.50
18339;DHT22;9295;44.484;11.240;2022-09-27T14:12:07;24.20;95.00
18339;DHT22;9295;44.484;11.240;2022-09-27T14:14:39;24.20;95.20
18339;DHT22;9295;44.484;11.240;2022-09-27T14:17:09;24.10;95.50
18339;DHT22;9295;44.484;11.240;2022-09-27T14:19:41;24.10;95.40
18339;DHT22;9295;44.484;11.240;2022-09-27T14:22:12;23.90;95.50
18339;DHT22;9295;44.484;11.240;2022-09-27T14:24:58;23.90;96.10
18339;DHT22;9295;44.484;11.240;2022-09-27T14:27:39;23.80;96.00
18339;DHT22;9295;44.484;11.240;2022-09-27T14:30:25;23.80;96.10
18339;DHT22;9295;44.484;11.240;2022-09-27T14:33:27;23.70;96.70
18339;DHT22;9295;44.484;11.240;2022-09-27T14:36:00;23.70;96.50
18339;DHT22;9295;44.484;11.240;2022-09-27T14:38:51;23.60;96.50
18339;DHT22;9295;44.484;11.240;2022-09-27T14:41:25;23.50;96.60
18339;DHT22;9295;44.484;11.240;2022-09-27T14:43:56;23.50;96.80
18339;DHT22;9295;44.484;11.240;2022-09-27T14:46:43;23.40;97.00
18339;DHT22;9295;44.484;11.240;2022-09-27T14:49:20;23.40;97.10
18339;DHT22;9295;44.484;11.240;2022-09-27T14:51:53;23.30;97.50
18339;DHT22;9295;44.484;11.240;2022-09-27T14:54:24;23.30;97.40
18339;DHT22;9295;44.484;11.240;2022-09-27T14:56:53;23.30;97.60
18339;DHT22;9295;44.484;11.240;2022-09-27T14:59:27;23.20;98.30
18339;DHT22;9295;44.484;11.240;2022-09-27T15:01:58;23.20;98.40
18339;DHT22;9295;44.484;11.240;2022-09-27T15:04:29;23.20;98.50
18339;DHT22;9295;44.484;11.240;2022-09-27T15:06:59;23.10;98.20
18339;DHT22;9295;44.484;11.240;2022-09-27T15:09:30;23.10;98.30
18339;DHT22;9295;44.484;11.240;2022-09-27T15:12:00;23.20;98.50
18339;DHT22;9295;44.484;11.240;2022-09-27T15:14:32;23.20;98.50
18339;DHT22;9295;44.484;11.240;2022-09-27T15:17:03;23.20;98.50
18339;DHT22;9295;44.484;11.240;2022-09-27T15:19:32;23.20;98.50
18339;DHT22;9295;44.484;11.240;2022-09-27T15:22:28;23.20;98.40
18339;DHT22;9295;44.484;11.240;2022-09-27T15:25:14;23.20;98.50
18339;DHT22;9295;44.484;11.240;2022-09-27T15:27:47;23.00;98.80
18339;DHT22;9295;44.484;11.240;2022-09-27T15:30:25;23.00;99.30
18339;DHT22;9295;44.484;11.240;2022-09-27T15:32:56;22.90;99.30
18339;DHT22;9295;44.484;11.240;2022-09-27T15:35:28;22.80;99.40
18339;DHT22;9295;44.484;11.240;2022-09-27T15:38:22;22.70;99.90
18339;DHT22;9295;44.484;11.240;2022-09-27T15:41:03;22.70;99.60
18339;DHT22;9295;44.484;11.240;2022-09-27T15:43:35;22.60;99.50
18339;DHT22;9295;44.484;11.240;2022-09-27T15:46:25;22.50;99.60
18339;DHT22;9295;44.484;11.240;2022-09-27T15:52:01;22.40;99.90
18339;DHT22;9295;44.484;11.240;2022-09-27T15:54:31;22.30;99.90
18339;DHT22;9295;44.484;11.240;2022-09-27T15:57:03;22.20;99.90
18339;DHT22;9295;44.484;11.240;2022-09-27T15:59:34;22.20;99.90
18339;DHT22;9295;44.484;11.240;2022-09-27T16:02:11;22.20;99.90
18339;DHT22;9295;44.484;11.240;2022-09-27T16:04:42;22.20;99.90
18339;DHT22;9295;44.484;11.240;2022-09-27T16:07:13;22.20;99.90
18339;DHT22;9295;44.484;11.240;2022-09-27T16:09:41;22.10;99.90
18339;DHT22;9295;44.484;11.240;2022-09-27T16:12:11;22.10;99.90
18339;DHT22;9295;44.484;11.240;2022-09-27T16:14:39;22.10;99.90
18339;DHT22;9295;44.484;11.240;2022-09-27T16:17:09;22.00;99.90
18339;DHT22;9295;44.484;11.240;2022-09-27T16:19:38;21.90;99.90
18339;DHT22;9295;44.484;11.240;2022-09-27T16:22:06;21.90;99.90
18339;DHT22;9295;44.484;11.240;2022-09-27T16:24:34;21.80;99.90
18339;DHT22;9295;44.484;11.240;2022-09-27T16:27:03;21.70;99.90
18339;DHT22;9295;44.484;11.240;2022-09-27T16:29:31;21.70;99.90
18339;DHT22;9295;44.484;11.240;2022-09-27T16:32:00;21.60;99.90
18339;DHT22;9295;44.484;11.240;2022-09-27T16:34:30;21.50;99.90
18339;DHT22;9295;44.484;11.240;2022-09-27T16:36:58;21.40;99.90
18339;DHT22;9295;44.484;11.240;2022-09-27T16:39:31;21.40;99.90
18339;DHT22;9295;44.484;11.240;2022-09-27T16:41:59;21.30;99.90
18339;DHT22;9295;44.484;11.240;2022-09-27T16:44:30;21.20;99.90
18339;DHT22;9295;44.484;11.240;2022-09-27T16:47:02;21.10;99.90
18339;DHT22;9295;44.484;11.240;2022-09-27T16:49:32;21.10;99.90
18339;DHT22;9295;44.484;11.240;2022-09-27T16:52:18;21.00;99.90
18339;DHT22;9295;44.484;11.240;2022-09-27T16:54:46;20.90;99.90